Terminal Aerodrome Forecast
Issued by NWS Louisville, KY

Home | Current Version | Previous Version | Text Only | Print | Product List | Glossary On
Versions: 1 2 3 4 5 6 7 8 9 10 11 12 13 14
000
FTUS43 KLMK 250535 AAA
TAFBWG
TAF AMD
KBWG 250535Z 2506/2606 25007KT P6SM VCSH BKN070
     FM251200 26010KT P6SM VCSH OVC022
      TEMPO 2512/2516 OVC018
     FM251600 27011KT P6SM BKN035
     FM252100 27011KT P6SM SCT070=

USA.gov is the U.S. government's official web portal to all federal, state and local government web resources and services.